sensor_id;sensor_type;location;lat;lon;timestamp;pressure;altitude;pressure_sealevel;temperature;humidity
74544;BME280;63016;55.030;38.710;2022-11-10T15:03:17;100432.28;;;10.90;70.14
74544;BME280;63016;55.030;38.710;2022-11-10T15:05:44;100430.94;;;11.12;71.21
74544;BME280;63016;55.030;38.710;2022-11-10T15:08:11;100427.72;;;11.26;70.04
74544;BME280;63016;55.030;38.710;2022-11-10T15:10:41;100422.19;;;11.29;69.39
74544;BME280;63016;55.030;38.710;2022-11-10T15:15:36;100411.09;;;11.27;69.29
74544;BME280;63016;55.030;38.710;2022-11-10T15:18:01;100419.59;;;11.29;69.03
74544;BME280;63016;55.030;38.710;2022-11-10T15:20:31;100405.19;;;11.25;69.03
74544;BME280;63016;55.030;38.710;2022-11-10T15:22:58;100408.16;;;11.22;68.85
74544;BME280;63016;55.030;38.710;2022-11-10T15:25:32;100406.66;;;11.19;69.27
74544;BME280;63016;55.030;38.710;2022-11-10T15:28:17;100410.09;;;11.20;68.99
74544;BME280;63016;55.030;38.710;2022-11-10T15:30:54;100416.28;;;11.19;68.86
74544;BME280;63016;55.030;38.710;2022-11-10T15:33:27;100413.00;;;11.17;69.16
74544;BME280;63016;55.030;38.710;2022-11-10T15:36:12;100418.91;;;11.19;69.64
74544;BME280;63016;55.030;38.710;2022-11-10T15:38:38;100418.91;;;11.19;69.17
74544;BME280;63016;55.030;38.710;2022-11-10T15:41:12;100415.31;;;11.20;69.37
74544;BME280;63016;55.030;38.710;2022-11-10T15:43:39;100408.63;;;11.17;69.05
74544;BME280;63016;55.030;38.710;2022-11-10T15:46:31;100431.97;;;11.19;68.95
74544;BME280;63016;55.030;38.710;2022-11-10T15:48:56;100413.16;;;11.15;69.16
74544;BME280;63016;55.030;38.710;2022-11-10T15:51:22;100435.84;;;11.15;68.97
74544;BME280;63016;55.030;38.710;2022-11-10T15:53:49;100427.00;;;11.07;69.38
74544;BME280;63016;55.030;38.710;2022-11-10T15:56:18;100435.50;;;11.10;69.45
74544;BME280;63016;55.030;38.710;2022-11-10T15:58:45;100439.91;;;11.09;69.14
74544;BME280;63016;55.030;38.710;2022-11-10T16:01:13;100432.88;;;11.10;69.25
74544;BME280;63016;55.030;38.710;2022-11-10T16:03:39;100429.47;;;11.09;69.34
74544;BME280;63016;55.030;38.710;2022-11-10T16:06:09;100435.50;;;11.10;69.09
74544;BME280;63016;55.030;38.710;2022-11-10T16:08:35;100431.25;;;11.09;69.36
74544;BME280;63016;55.030;38.710;2022-11-10T16:11:01;100427.66;;;11.10;69.11
74544;BME280;63016;55.030;38.710;2022-11-10T16:13:30;100420.81;;;11.09;69.25
74544;BME280;63016;55.030;38.710;2022-11-10T16:15:59;100421.47;;;11.11;69.20
74544;BME280;63016;55.030;38.710;2022-11-10T16:18:29;100420.81;;;11.09;69.23
74544;BME280;63016;55.030;38.710;2022-11-10T16:20:55;100423.09;;;11.12;69.47
74544;BME280;63016;55.030;38.710;2022-11-10T16:23:21;100420.34;;;11.13;69.15
74544;BME280;63016;55.030;38.710;2022-11-10T16:25:48;100426.69;;;11.11;69.11
74544;BME280;63016;55.030;38.710;2022-11-10T16:28:25;100432.59;;;11.13;69.02
74544;BME280;63016;55.030;38.710;2022-11-10T16:30:52;100427.66;;;11.10;69.13
74544;BME280;63016;55.030;38.710;2022-11-10T16:33:21;100426.56;;;11.12;69.56
74544;BME280;63016;55.030;38.710;2022-11-10T16:35:51;100428.31;;;11.12;69.24
74544;BME280;63016;55.030;38.710;2022-11-10T16:38:18;100424.75;;;11.13;69.11
74544;BME280;63016;55.030;38.710;2022-11-10T16:40:47;100429.00;;;11.14;69.31
74544;BME280;63016;55.030;38.710;2022-11-10T16:43:15;100432.41;;;11.14;69.11
74544;BME280;63016;55.030;38.710;2022-11-10T16:45:42;100429.66;;;11.16;69.16
74544;BME280;63016;55.030;38.710;2022-11-10T16:48:13;100420.34;;;11.13;69.34
74544;BME280;63016;55.030;38.710;2022-11-10T16:50:41;100413.50;;;11.12;69.12
74544;BME280;63016;55.030;38.710;2022-11-10T16:53:12;100423.59;;;11.15;69.47
74544;BME280;63016;55.030;38.710;2022-11-10T16:55:39;100424.28;;;11.17;69.41
74544;BME280;63016;55.030;38.710;2022-11-10T16:58:04;100406.97;;;11.16;69.30
74544;BME280;63016;55.030;38.710;2022-11-10T17:00:29;100413.16;;;11.15;68.95
74544;BME280;63016;55.030;38.710;2022-11-10T17:03:19;100420.00;;;11.16;69.21
74544;BME280;63016;55.030;38.710;2022-11-10T17:05:46;100399.41;;;11.05;69.14
74544;BME280;63016;55.030;38.710;2022-11-10T17:08:24;100422.97;;;11.13;69.33
74544;BME280;63016;55.030;38.710;2022-11-10T17:10:50;100418.72;;;11.12;69.50
74544;BME280;63016;55.030;38.710;2022-11-10T17:13:17;100407.59;;;11.10;69.63
74544;BME280;63016;55.030;38.710;2022-11-10T17:15:43;100411.81;;;11.11;69.39
74544;BME280;63016;55.030;38.710;2022-11-10T17:18:14;100418.53;;;11.14;69.36
74544;BME280;63016;55.030;38.710;2022-11-10T17:20:44;100415.94;;;11.14;69.48
74544;BME280;63016;55.030;38.710;2022-11-10T17:23:12;100408.63;;;11.17;69.41
74544;BME280;63016;55.030;38.710;2022-11-10T17:25:39;100406.00;;;11.17;69.48
74544;BME280;63016;55.030;38.710;2022-11-10T17:28:04;100410.38;;;11.17;69.46
74544;BME280;63016;55.030;38.710;2022-11-10T17:30:31;100412.34;;;11.15;69.09
74544;BME280;63016;55.030;38.710;2022-11-10T17:32:56;100422.97;;;11.13;69.00
74544;BME280;63016;55.030;38.710;2022-11-10T17:35:23;100416.25;;;11.11;69.12
74544;BME280;63016;55.030;38.710;2022-11-10T17:37:53;100414.09;;;11.06;69.05
74544;BME280;63016;55.030;38.710;2022-11-10T17:40:21;100421.94;;;11.06;69.10
74544;BME280;63016;55.030;38.710;2022-11-10T17:42:48;100421.28;;;11.04;69.21
74544;BME280;63016;55.030;38.710;2022-11-10T17:45:22;100423.06;;;11.03;68.82
74544;BME280;63016;55.030;38.710;2022-11-10T17:47:48;100413.22;;;10.97;69.11
74544;BME280;63016;55.030;38.710;2022-11-10T17:50:15;100409.31;;;10.93;68.81
74544;BME280;63016;55.030;38.710;2022-11-10T17:52:42;100429.06;;;10.96;68.97
74544;BME280;63016;55.030;38.710;2022-11-10T17:55:24;100415.34;;;10.94;69.08
74544;BME280;63016;55.030;38.710;2022-11-10T17:57:52;100426.44;;;10.96;69.16
74544;BME280;63016;55.030;38.710;2022-11-10T18:00:18;100435.09;;;10.96;69.19
74544;BME280;63016;55.030;38.710;2022-11-10T18:02:46;100428.88;;;10.97;69.13
74544;BME280;63016;55.030;38.710;2022-11-10T18:05:14;100429.88;;;10.96;69.09
74544;BME280;63016;55.030;38.710;2022-11-10T18:07:39;100429.22;;;10.94;69.26
74544;BME280;63016;55.030;38.710;2022-11-10T18:10:06;100432.66;;;10.95;69.02
74544;BME280;63016;55.030;38.710;2022-11-10T18:12:32;100431.00;;;10.94;69.47
74544;BME280;63016;55.030;38.710;2022-11-10T18:14:58;100433.63;;;10.94;68.99
74544;BME280;63016;55.030;38.710;2022-11-10T18:17:24;100428.69;;;10.91;68.88
74544;BME280;63016;55.030;38.710;2022-11-10T18:19:50;100424.81;;;10.95;69.17
74544;BME280;63016;55.030;38.710;2022-11-10T18:22:15;100425.94;;;10.92;69.08
74544;BME280;63016;55.030;38.710;2022-11-10T18:24:42;100437.06;;;10.94;69.19
74544;BME280;63016;55.030;38.710;2022-11-10T18:27:08;100426.09;;;10.91;69.24
74544;BME280;63016;55.030;38.710;2022-11-10T18:29:34;100407.09;;;10.80;68.92
74544;BME280;63016;55.030;38.710;2022-11-10T18:32:01;100421.16;;;10.88;69.34
74544;BME280;63016;55.030;38.710;2022-11-10T18:34:27;100427.72;;;10.92;69.11
74544;BME280;63016;55.030;38.710;2022-11-10T18:36:52;100417.75;;;10.87;69.10
74544;BME280;63016;55.030;38.710;2022-11-10T18:39:19;100425.09;;;10.92;68.97
74544;BME280;63016;55.030;38.710;2022-11-10T18:41:45;100428.88;;;10.89;69.11
74544;BME280;63016;55.030;38.710;2022-11-10T18:44:18;100431.47;;;10.89;69.17
74544;BME280;63016;55.030;38.710;2022-11-10T18:46:44;100421.34;;;10.86;69.33
74544;BME280;63016;55.030;38.710;2022-11-10T18:49:11;100399.56;;;10.77;68.87
74544;BME280;63016;55.030;38.710;2022-11-10T18:51:37;100417.75;;;10.87;68.74
74544;BME280;63016;55.030;38.710;2022-11-10T18:54:03;100416.28;;;10.85;69.09
74544;BME280;63016;55.030;38.710;2022-11-10T18:56:29;100415.47;;;10.84;68.89
74544;BME280;63016;55.030;38.710;2022-11-10T18:58:54;100412.69;;;10.86;69.03
74544;BME280;63016;55.030;38.710;2022-11-10T19:01:20;100415.47;;;10.84;69.11
74544;BME280;63016;55.030;38.710;2022-11-10T19:03:47;100414.94;;;10.80;69.21
74544;BME280;63016;55.030;38.710;2022-11-10T19:06:14;100406.28;;;10.80;69.37
74544;BME280;63016;55.030;38.710;2022-11-10T19:08:40;100413.16;;;10.81;68.77
74544;BME280;63016;55.030;38.710;2022-11-10T19:11:07;100398.63;;;10.78;68.70
74544;BME280;63016;55.030;38.710;2022-11-10T19:13:34;100408.22;;;10.78;68.95
74544;BME280;63016;55.030;38.710;2022-11-10T19:16:07;100403.97;;;10.77;68.72
74544;BME280;63016;55.030;38.710;2022-11-10T19:18:34;100394.97;;;10.71;69.04
74544;BME280;63016;55.030;38.710;2022-11-10T19:21:06;100409.81;;;10.71;68.97
74544;BME280;63016;55.030;38.710;2022-11-10T19:23:32;100404.59;;;10.71;68.81
74544;BME280;63016;55.030;38.710;2022-11-10T19:26:02;100395.75;;;10.64;68.91
74544;BME280;63016;55.030;38.710;2022-11-10T19:28:29;100407.38;;;10.69;69.29
74544;BME280;63016;55.030;38.710;2022-11-10T19:30:59;100410.00;;;10.69;69.18
74544;BME280;63016;55.030;38.710;2022-11-10T19:33:28;100416.03;;;10.70;68.94
74544;BME280;63016;55.030;38.710;2022-11-10T19:35:53;100408.84;;;10.72;69.19
74544;BME280;63016;55.030;38.710;2022-11-10T19:38:21;100416.03;;;10.70;68.86
74544;BME280;63016;55.030;38.710;2022-11-10T19:40:47;100415.03;;;10.71;68.89
74544;BME280;63016;55.030;38.710;2022-11-10T19:43:13;100410.13;;;10.68;68.89
74544;BME280;63016;55.030;38.710;2022-11-10T19:45:39;100406.84;;;10.66;68.90
74544;BME280;63016;55.030;38.710;2022-11-10T19:48:05;100420.19;;;10.63;68.61
74544;BME280;63016;55.030;38.710;2022-11-10T19:50:30;100412.38;;;10.63;68.88
74544;BME280;63016;55.030;38.710;2022-11-10T19:52:56;100409.09;;;10.61;68.93
74544;BME280;63016;55.030;38.710;2022-11-10T19:55:22;100400.91;;;10.55;68.85
74544;BME280;63016;55.030;38.710;2022-11-10T19:57:47;100412.69;;;10.60;69.08
74544;BME280;63016;55.030;38.710;2022-11-10T20:00:13;100406.78;;;10.58;68.89
74544;BME280;63016;55.030;38.710;2022-11-10T20:02:40;100413.66;;;10.59;68.85
74544;BME280;63016;55.030;38.710;2022-11-10T20:05:06;100414.63;;;10.58;68.92
74544;BME280;63016;55.030;38.710;2022-11-10T20:07:37;100406.78;;;10.58;68.92
74544;BME280;63016;55.030;38.710;2022-11-10T20:10:21;100410.53;;;10.55;68.75
74544;BME280;63016;55.030;38.710;2022-11-10T20:12:47;100409.72;;;10.54;68.98
74544;BME280;63016;55.030;38.710;2022-11-10T20:15:12;100415.75;;;10.55;69.16
74544;BME280;63016;55.030;38.710;2022-11-10T20:17:38;100407.25;;;10.53;69.09
74544;BME280;63016;55.030;38.710;2022-11-10T20:20:04;100418.66;;;10.52;69.00
74544;BME280;63016;55.030;38.710;2022-11-10T20:22:30;100411.97;;;10.49;68.77
74544;BME280;63016;55.030;38.710;2022-11-10T20:24:55;100411.63;;;10.44;69.09
74544;BME280;63016;55.030;38.710;2022-11-10T20:27:21;100410.47;;;10.47;68.64
74544;BME280;63016;55.030;38.710;2022-11-10T20:29:46;100414.41;;;10.51;69.00
74544;BME280;63016;55.030;38.710;2022-11-10T20:32:12;100414.59;;;10.49;69.37
74544;BME280;63016;55.030;38.710;2022-11-10T20:34:37;100410.84;;;10.52;68.70
74544;BME280;63016;55.030;38.710;2022-11-10T20:37:03;100416.06;;;10.52;68.67
74544;BME280;63016;55.030;38.710;2022-11-10T20:39:29;100418.81;;;10.50;69.10
74544;BME280;63016;55.030;38.710;2022-11-10T20:41:57;100407.56;;;10.50;68.80
74544;BME280;63016;55.030;38.710;2022-11-10T20:44:23;100421.44;;;10.50;68.75
74544;BME280;63016;55.030;38.710;2022-11-10T20:46:48;100424.19;;;10.49;68.64
74544;BME280;63016;55.030;38.710;2022-11-10T20:49:14;100412.28;;;10.46;69.05
74544;BME280;63016;55.030;38.710;2022-11-10T20:51:40;100416.50;;;10.47;68.82
74544;BME280;63016;55.030;38.710;2022-11-10T20:54:05;100426.13;;;10.47;68.65
74544;BME280;63016;55.030;38.710;2022-11-10T20:56:31;100422.69;;;10.46;68.97
74544;BME280;63016;55.030;38.710;2022-11-10T20:58:57;100423.50;;;10.47;68.65
74544;BME280;63016;55.030;38.710;2022-11-10T21:01:23;100427.09;;;10.46;69.03
74544;BME280;63016;55.030;38.710;2022-11-10T21:03:49;100414.00;;;10.38;68.99
74544;BME280;63016;55.030;38.710;2022-11-10T21:06:14;100421.38;;;10.42;68.75
74544;BME280;63016;55.030;38.710;2022-11-10T21:08:40;100425.47;;;10.45;68.68
74544;BME280;63016;55.030;38.710;2022-11-10T21:11:08;100425.31;;;10.46;69.10
74544;BME280;63016;55.030;38.710;2022-11-10T21:13:35;100420.25;;;10.45;68.63
74544;BME280;63016;55.030;38.710;2022-11-10T21:16:03;100422.88;;;10.45;69.27
74544;BME280;63016;55.030;38.710;2022-11-10T21:18:31;100430.38;;;10.48;69.05
74544;BME280;63016;55.030;38.710;2022-11-10T21:20:57;100427.91;;;10.46;69.02
74544;BME280;63016;55.030;38.710;2022-11-10T21:23:23;100425.59;;;10.43;68.36
74544;BME280;63016;55.030;38.710;2022-11-10T21:25:56;100431.78;;;10.42;68.38
74544;BME280;63016;55.030;38.710;2022-11-10T21:28:22;100420.03;;;10.38;68.56
74544;BME280;63016;55.030;38.710;2022-11-10T21:30:48;100424.25;;;10.39;68.90
74544;BME280;63016;55.030;38.710;2022-11-10T21:33:14;100418.38;;;10.37;68.96
74544;BME280;63016;55.030;38.710;2022-11-10T21:35:40;100428.53;;;10.40;68.46
74544;BME280;63016;55.030;38.710;2022-11-10T21:38:06;100429.19;;;10.42;69.06
74544;BME280;63016;55.030;38.710;2022-11-10T21:40:32;100425.94;;;10.40;69.12
74544;BME280;63016;55.030;38.710;2022-11-10T21:42:58;100426.88;;;10.39;68.93
74544;BME280;63016;55.030;38.710;2022-11-10T21:45:23;100424.44;;;10.38;68.73
74544;BME280;63016;55.030;38.710;2022-11-10T21:47:52;100428.53;;;10.40;68.68
74544;BME280;63016;55.030;38.710;2022-11-10T21:50:17;100433.75;;;10.40;69.04
74544;BME280;63016;55.030;38.710;2022-11-10T21:52:43;100428.53;;;10.40;68.84
74544;BME280;63016;55.030;38.710;2022-11-10T21:55:11;100425.94;;;10.40;68.77
74544;BME280;63016;55.030;38.710;2022-11-10T21:57:36;100419.03;;;10.39;68.98
74544;BME280;63016;55.030;38.710;2022-11-10T22:00:02;100425.25;;;10.38;68.72
74544;BME280;63016;55.030;38.710;2022-11-10T22:02:28;100423.31;;;10.40;68.64
74544;BME280;63016;55.030;38.710;2022-11-10T22:04:53;100420.84;;;10.39;69.15
74544;BME280;63016;55.030;38.710;2022-11-10T22:07:19;100430.16;;;10.41;68.97
74544;BME280;63016;55.030;38.710;2022-11-10T22:09:47;100427.56;;;10.41;68.75
74544;BME280;63016;55.030;38.710;2022-11-10T22:12:31;100436.03;;;10.43;68.85
74544;BME280;63016;55.030;38.710;2022-11-10T22:15:15;100431.78;;;10.42;68.52
74544;BME280;63016;55.030;38.710;2022-11-10T22:17:59;100433.75;;;10.40;68.83
74544;BME280;63016;55.030;38.710;2022-11-10T22:20:44;100431.28;;;10.39;68.26
74544;BME280;63016;55.030;38.710;2022-11-10T22:23:10;100423.59;;;10.37;68.63
74544;BME280;63016;55.030;38.710;2022-11-10T22:25:35;100420.19;;;10.37;68.95
74544;BME280;63016;55.030;38.710;2022-11-10T22:28:01;100421.81;;;10.38;68.95
74544;BME280;63016;55.030;38.710;2022-11-10T22:30:27;100420.84;;;10.39;68.65
74544;BME280;63016;55.030;38.710;2022-11-10T22:32:53;100426.38;;;10.36;68.71
74544;BME280;63016;55.030;38.710;2022-11-10T22:35:18;100419.22;;;10.38;68.83
74544;BME280;63016;55.030;38.710;2022-11-10T22:38:04;100428.00;;;10.37;68.85
74544;BME280;63016;55.030;38.710;2022-11-10T22:40:30;100442.84;;;10.36;69.06
74544;BME280;63016;55.030;38.710;2022-11-10T22:43:14;100424.72;;;10.35;68.89
74544;BME280;63016;55.030;38.710;2022-11-10T22:45:58;100428.16;;;10.35;68.94
74544;BME280;63016;55.030;38.710;2022-11-10T22:48:23;100424.88;;;10.33;68.60
74544;BME280;63016;55.030;38.710;2022-11-10T22:50:56;100428.47;;;10.32;69.13
74544;BME280;63016;55.030;38.710;2022-11-10T22:53:22;100426.97;;;10.29;69.02
74544;BME280;63016;55.030;38.710;2022-11-10T22:55:48;100435.47;;;10.32;68.86
74544;BME280;63016;55.030;38.710;2022-11-10T22:58:14;100426.81;;;10.31;68.88
74544;BME280;63016;55.030;38.710;2022-11-10T23:00:40;100431.22;;;10.31;68.52
74544;BME280;63016;55.030;38.710;2022-11-10T23:03:05;100431.34;;;10.29;68.43
74544;BME280;63016;55.030;38.710;2022-11-10T23:05:35;100426.47;;;10.26;68.99
74544;BME280;63016;55.030;38.710;2022-11-10T23:08:01;100430.13;;;10.23;68.41
74544;BME280;63016;55.030;38.710;2022-11-10T23:10:27;100433.59;;;10.24;68.46
74544;BME280;63016;55.030;38.710;2022-11-10T23:12:53;100433.88;;;10.21;68.86
74544;BME280;63016;55.030;38.710;2022-11-10T23:15:20;100437.31;;;10.21;68.73
74544;BME280;63016;55.030;38.710;2022-11-10T23:17:45;100437.44;;;10.20;69.00
74544;BME280;63016;55.030;38.710;2022-11-10T23:20:11;100439.22;;;10.19;69.29
74544;BME280;63016;55.030;38.710;2022-11-10T23:22:37;100442.66;;;10.20;68.63
74544;BME280;63016;55.030;38.710;2022-11-10T23:25:02;100445.13;;;10.21;69.00
74544;BME280;63016;55.030;38.710;2022-11-10T23:27:28;100451.44;;;10.19;68.62
74544;BME280;63016;55.030;38.710;2022-11-10T23:29:53;100437.88;;;10.15;69.04
74544;BME280;63016;55.030;38.710;2022-11-10T23:32:19;100445.72;;;10.15;69.21
74544;BME280;63016;55.030;38.710;2022-11-10T23:34:44;100438.03;;;10.14;68.68
74544;BME280;63016;55.030;38.710;2022-11-10T23:37:10;100442.28;;;10.15;69.04
74544;BME280;63016;55.030;38.710;2022-11-10T23:39:36;100444.06;;;10.14;69.27
74544;BME280;63016;55.030;38.710;2022-11-10T23:42:01;100443.25;;;10.14;68.90
74544;BME280;63016;55.030;38.710;2022-11-10T23:44:26;100438.03;;;10.14;68.80
74544;BME280;63016;55.030;38.710;2022-11-10T23:46:52;100443.94;;;10.16;69.10
74544;BME280;63016;55.030;38.710;2022-11-10T23:49:17;100440.50;;;10.15;68.99
74544;BME280;63016;55.030;38.710;2022-11-10T23:51:43;100436.41;;;10.13;68.90
74544;BME280;63016;55.030;38.710;2022-11-10T23:54:08;100438.19;;;10.12;68.78
74544;BME280;63016;55.030;38.710;2022-11-10T23:56:34;100433.81;;;10.13;68.83
74544;BME280;63016;55.030;38.710;2022-11-10T23:58:59;100431.19;;;10.13;68.91
